Time;durP1;ratioP1;P1;durP2;ratioP2;P2;SDS_P1;SDS_P2;PMS_P1;PMS_P2;Temp;Humidity;BMP_temperature;BMP_pressure;BME280_temperature;BME280_humidity;BME280_pressure;Samples;Min_cycle;Max_cycle;Signal;HPM_P1;HPM_P2
2023/04/15 00:01:59;;;;;;;6.07;3.70;;;6.10;99.90;;;;;;5027151;28;20255;-61
2023/04/15 00:04:25;;;;;;;4.33;3.73;;;6.10;99.90;;;;;;5029860;28;20269;-61
2023/04/15 00:06:52;;;;;;;5.38;4.10;;;6.30;99.90;;;;;;5026432;28;20197;-61
2023/04/15 00:09:18;;;;;;;4.53;4.13;;;6.10;99.90;;;;;;5026334;28;20183;-61
2023/04/15 00:11:45;;;;;;;5.97;4.35;;;6.10;99.90;;;;;;5023597;28;20193;-61
2023/04/15 00:14:12;;;;;;;4.68;3.70;;;5.80;99.90;;;;;;5023876;28;20186;-61
2023/04/15 00:16:38;;;;;;;4.38;3.33;;;5.40;99.90;;;;;;5025069;28;20223;-61
2023/04/15 00:19:03;;;;;;;4.90;3.67;;;5.80;99.90;;;;;;5028456;28;20254;-61
2023/04/15 00:21:30;;;;;;;8.50;4.20;;;6.00;99.90;;;;;;5025501;28;20441;-61
2023/04/15 00:23:56;;;;;;;8.98;3.83;;;6.00;99.90;;;;;;5025060;28;20612;-61
2023/04/15 00:26:22;;;;;;;4.00;3.60;;;6.00;99.90;;;;;;5027421;28;20217;-61
2023/04/15 00:28:47;;;;;;;4.33;3.30;;;5.80;99.90;;;;;;5024839;28;20440;-61
2023/04/15 00:31:14;;;;;;;6.23;4.20;;;5.60;99.90;;;;;;5023007;28;20191;-61
2023/04/15 00:33:40;;;;;;;4.75;3.75;;;5.90;99.90;;;;;;5025154;28;20656;-61
2023/04/15 00:36:07;;;;;;;4.97;4.47;;;5.80;99.90;;;;;;5025235;28;20280;-61
2023/04/15 00:38:33;;;;;;;7.05;4.00;;;5.60;99.90;;;;;;5023727;28;20485;-61
2023/04/15 00:40:58;;;;;;;4.70;3.67;;;5.30;99.90;;;;;;5022536;28;20218;-61
2023/04/15 00:43:25;;;;;;;5.73;3.97;;;5.80;99.90;;;;;;5025708;28;20220;-61
2023/04/15 00:45:53;;;;;;;6.80;3.72;;;6.20;99.90;;;;;;5025860;28;20444;-61
2023/04/15 00:48:19;;;;;;;4.10;3.70;;;5.60;99.90;;;;;;5025928;28;20198;-62
2023/04/15 00:50:45;;;;;;;4.25;3.42;;;5.70;99.90;;;;;;5017907;28;20285;-61
2023/04/15 00:53:11;;;;;;;4.83;3.30;;;5.70;99.90;;;;;;5026981;28;20292;-61
2023/04/15 00:55:36;;;;;;;6.90;4.03;;;5.20;99.90;;;;;;5026083;28;20179;-61
2023/04/15 00:58:02;;;;;;;5.07;3.50;;;5.60;99.90;;;;;;5025308;28;20585;-61
2023/04/15 01:00:29;;;;;;;5.43;3.37;;;5.90;99.90;;;;;;5021879;28;20496;-61
2023/04/15 01:02:55;;;;;;;4.53;3.95;;;4.90;99.90;;;;;;5024439;28;20206;-62
2023/04/15 01:05:20;;;;;;;6.17;4.17;;;5.30;99.90;;;;;;5026821;28;20639;-61
2023/04/15 01:07:47;;;;;;;5.40;3.93;;;5.50;99.90;;;;;;5023997;28;20230;-61
2023/04/15 01:10:13;;;;;;;6.60;3.85;;;5.60;99.90;;;;;;5026103;28;20492;-61
2023/04/15 01:12:39;;;;;;;10.63;4.20;;;5.30;99.90;;;;;;5025837;28;20213;-61
2023/04/15 01:15:05;;;;;;;5.68;4.50;;;5.90;99.90;;;;;;5028572;28;20187;-61
2023/04/15 01:17:31;;;;;;;4.93;4.43;;;5.40;99.90;;;;;;5024922;28;20299;-61
2023/04/15 01:19:57;;;;;;;5.32;4.15;;;5.20;99.90;;;;;;5021540;28;20300;-61
2023/04/15 01:22:25;;;;;;;7.10;4.27;;;5.30;99.90;;;;;;5025860;28;20300;-61
2023/04/15 01:24:56;;;;;;;4.90;4.15;;;5.20;99.90;;;;;;5024780;28;20234;-61
2023/04/15 01:27:22;;;;;;;4.82;4.05;;;5.10;99.90;;;;;;5024127;28;20232;-61
2023/04/15 01:29:48;;;;;;;5.27;3.30;;;5.20;99.90;;;;;;5024292;28;20596;-61
2023/04/15 01:32:13;;;;;;;5.07;3.30;;;4.70;99.90;;;;;;5024208;28;20202;-61
2023/04/15 01:34:39;;;;;;;4.57;3.77;;;5.40;99.90;;;;;;5016120;28;20208;-61
2023/04/15 01:37:04;;;;;;;5.03;3.40;;;5.40;99.90;;;;;;5025191;28;20182;-61
2023/04/15 01:39:30;;;;;;;8.80;3.90;;;4.90;99.90;;;;;;5024959;28;20232;-61
2023/04/15 01:41:56;;;;;;;8.33;3.70;;;4.50;99.90;;;;;;5022746;28;20541;-61
2023/04/15 01:44:21;;;;;;;5.10;4.10;;;5.00;99.90;;;;;;5022204;28;20217;-61
2023/04/15 01:46:48;;;;;;;4.90;3.50;;;5.30;99.90;;;;;;5022248;28;20443;-61
2023/04/15 01:49:13;;;;;;;6.93;3.63;;;5.20;99.90;;;;;;5024241;28;20206;-61
2023/04/15 01:51:39;;;;;;;5.77;3.80;;;5.20;99.90;;;;;;5028580;28;20677;-61
2023/04/15 01:54:05;;;;;;;5.90;3.93;;;4.80;99.90;;;;;;5026228;28;20552;-63
2023/04/15 01:56:30;;;;;;;6.30;3.80;;;5.10;99.90;;;;;;5023189;28;20483;-61
2023/04/15 01:58:56;;;;;;;6.20;3.93;;;5.10;99.90;;;;;;5017680;28;20473;-61
2023/04/15 02:01:22;;;;;;;4.87;3.63;;;4.90;99.90;;;;;;5023691;28;20190;-62
2023/04/15 02:03:47;;;;;;;3.80;3.30;;;4.70;99.90;;;;;;5022551;28;20786;-61
2023/04/15 02:06:13;;;;;;;6.40;3.90;;;5.00;99.90;;;;;;5022998;28;20204;-61
2023/04/15 02:08:39;;;;;;;9.77;3.60;;;5.10;99.90;;;;;;5023443;28;20189;-61
2023/04/15 02:11:04;;;;;;;4.90;3.27;;;4.90;99.90;;;;;;5024946;28;20185;-61
2023/04/15 02:13:30;;;;;;;4.00;3.43;;;5.10;99.90;;;;;;5023563;28;20283;-63
2023/04/15 02:15:56;;;;;;;4.70;3.60;;;4.80;99.90;;;;;;5023926;28;20184;-63
2023/04/15 02:18:21;;;;;;;3.88;3.45;;;5.10;99.90;;;;;;5023325;28;20197;-64
2023/04/15 02:20:47;;;;;;;3.43;3.13;;;5.00;99.90;;;;;;5026075;28;20191;-64
2023/04/15 02:23:13;;;;;;;6.13;3.10;;;4.90;99.90;;;;;;5021620;28;20218;-59
2023/04/15 02:25:39;;;;;;;4.40;3.40;;;4.90;99.90;;;;;;5026295;28;20265;-60
2023/04/15 02:28:05;;;;;;;4.50;4.10;;;4.30;99.90;;;;;;5022600;28;20713;-62
2023/04/15 02:30:32;;;;;;;5.85;3.55;;;5.00;99.90;;;;;;5023316;28;20432;-61
2023/04/15 02:32:58;;;;;;;3.63;3.33;;;4.60;99.90;;;;;;5022969;28;20271;-60
2023/04/15 02:35:24;;;;;;;5.70;4.30;;;4.80;99.90;;;;;;5025578;28;20186;-60
2023/04/15 02:37:50;;;;;;;5.72;3.70;;;4.70;99.90;;;;;;5022042;28;20534;-60
2023/04/15 02:40:16;;;;;;;5.20;3.50;;;4.70;99.90;;;;;;5025062;28;20247;-60
2023/04/15 02:42:43;;;;;;;4.17;3.50;;;4.50;99.90;;;;;;5024603;28;20561;-60
2023/04/15 02:45:09;;;;;;;4.07;3.55;;;4.60;99.90;;;;;;5025837;28;20440;-60
2023/04/15 02:47:35;;;;;;;5.15;4.38;;;4.80;99.90;;;;;;5022807;28;20183;-62
2023/04/15 02:50:04;;;;;;;5.73;3.73;;;4.70;99.90;;;;;;5019553;28;20213;-60
2023/04/15 02:52:30;;;;;;;5.47;3.75;;;4.50;99.90;;;;;;5025411;28;20481;-60
2023/04/15 02:54:59;;;;;;;5.00;3.70;;;4.60;99.90;;;;;;5027136;28;20185;-60
2023/04/15 02:57:27;;;;;;;3.50;3.20;;;4.70;99.90;;;;;;5025670;28;20926;-60
2023/04/15 02:59:53;;;;;;;5.30;3.63;;;4.60;99.90;;;;;;5028633;28;20200;-60
2023/04/15 03:02:18;;;;;;;3.67;3.23;;;4.30;99.90;;;;;;5028653;28;20578;-62
2023/04/15 03:04:44;;;;;;;6.60;4.20;;;4.50;99.90;;;;;;5025576;28;20180;-62
2023/04/15 03:07:09;;;;;;;4.30;3.90;;;4.00;99.90;;;;;;5026508;28;20235;-62
2023/04/15 03:09:35;;;;;;;5.07;3.90;;;4.20;99.90;;;;;;5027819;28;20189;-62
2023/04/15 03:12:01;;;;;;;3.93;3.20;;;4.40;99.90;;;;;;5028026;28;21774;-61
2023/04/15 03:14:27;;;;;;;3.72;3.42;;;4.60;99.90;;;;;;5024699;28;20216;-61
2023/04/15 03:16:53;;;;;;;4.43;3.70;;;4.30;99.90;;;;;;5030287;28;20671;-61
2023/04/15 03:19:18;;;;;;;6.87;3.80;;;4.40;99.90;;;;;;5026089;28;20208;-62
2023/04/15 03:21:44;;;;;;;4.47;2.97;;;4.50;99.90;;;;;;5024870;28;20201;-62
2023/04/15 03:24:10;;;;;;;4.87;3.47;;;4.50;99.90;;;;;;5028957;28;20210;-61
2023/04/15 03:26:35;;;;;;;6.10;3.60;;;5.00;99.90;;;;;;5024459;28;20613;-61
2023/04/15 03:29:01;;;;;;;5.03;3.30;;;4.70;99.90;;;;;;5023487;28;20182;-62
2023/04/15 03:31:27;;;;;;;6.33;3.30;;;4.60;99.90;;;;;;5029159;28;20314;-61
2023/04/15 03:33:52;;;;;;;3.50;3.20;;;4.50;99.90;;;;;;5027157;28;20252;-61
2023/04/15 03:36:18;;;;;;;5.13;3.00;;;4.60;99.90;;;;;;5024398;28;20194;-61
2023/04/15 03:38:43;;;;;;;5.27;2.93;;;4.50;99.90;;;;;;5025234;28;20243;-60
2023/04/15 03:41:09;;;;;;;4.87;3.43;;;4.70;99.90;;;;;;5025480;28;20675;-61
2023/04/15 03:43:35;;;;;;;5.43;3.20;;;4.90;99.90;;;;;;5027120;28;20216;-61
2023/04/15 03:46:01;;;;;;;4.50;3.73;;;4.50;99.90;;;;;;5025097;28;20196;-61
2023/04/15 03:48:27;;;;;;;3.47;3.17;;;4.50;99.90;;;;;;5027579;28;20479;-62
2023/04/15 03:50:52;;;;;;;4.93;3.80;;;4.40;99.90;;;;;;5025910;28;20456;-62
2023/04/15 03:53:19;;;;;;;3.60;3.30;;;4.00;99.90;;;;;;5026340;28;22561;-61
2023/04/15 03:55:46;;;;;;;3.95;2.78;;;4.50;99.90;;;;;;5027446;28;20281;-63
2023/04/15 03:58:12;;;;;;;3.57;3.27;;;4.50;99.90;;;;;;5024923;28;20277;-62
2023/04/15 04:00:39;;;;;;;3.73;3.10;;;5.00;99.90;;;;;;5025301;28;20205;-62
2023/04/15 04:03:05;;;;;;;4.07;3.10;;;4.90;99.90;;;;;;5026183;28;20497;-61
2023/04/15 04:05:30;;;;;;;4.47;3.25;;;4.60;99.90;;;;;;5028086;28;20176;-61
2023/04/15 04:07:56;;;;;;;4.77;3.47;;;4.30;99.90;;;;;;5028022;28;20193;-62
2023/04/15 04:10:22;;;;;;;3.70;2.90;;;4.30;99.90;;;;;;5030017;28;20198;-61
2023/04/15 04:12:47;;;;;;;4.20;2.70;;;4.30;99.90;;;;;;5025687;28;20216;-61
2023/04/15 04:15:13;;;;;;;7.10;3.20;;;4.20;99.90;;;;;;5025452;28;20219;-62
2023/04/15 04:17:39;;;;;;;6.40;3.20;;;4.20;99.90;;;;;;5028209;28;20196;-62
2023/04/15 04:20:05;;;;;;;3.50;3.00;;;3.70;99.90;;;;;;5029765;28;20195;-61
2023/04/15 04:22:36;;;;;;;5.38;3.15;;;4.30;99.90;;;;;;5025206;28;20680;-61
2023/04/15 04:25:01;;;;;;;4.63;3.47;;;4.20;99.90;;;;;;5029580;28;20209;-61
2023/04/15 04:27:27;;;;;;;4.90;3.40;;;4.20;99.90;;;;;;5026718;28;20544;-61
2023/04/15 04:29:53;;;;;;;4.20;3.20;;;4.20;99.90;;;;;;5025504;28;20677;-63
2023/04/15 04:32:18;;;;;;;4.67;3.30;;;4.40;99.90;;;;;;5027708;28;20291;-61
2023/04/15 04:34:44;;;;;;;6.93;3.43;;;4.40;99.90;;;;;;5025867;28;20179;-61
2023/04/15 04:37:10;;;;;;;5.50;3.30;;;4.20;99.90;;;;;;5028247;28;20192;-62
2023/04/15 04:39:35;;;;;;;3.90;3.50;;;4.10;99.90;;;;;;5024534;28;20186;-62
2023/04/15 04:42:01;;;;;;;5.07;3.20;;;4.20;99.90;;;;;;5026035;28;20261;-62
2023/04/15 04:44:26;;;;;;;3.83;3.10;;;4.70;99.90;;;;;;5026828;28;20307;-62
2023/04/15 04:46:52;;;;;;;5.07;3.50;;;3.60;99.90;;;;;;5023798;28;20215;-61
2023/04/15 04:49:18;;;;;;;6.63;3.53;;;4.20;99.90;;;;;;5027660;28;20185;-62
2023/04/15 04:51:43;;;;;;;4.50;3.43;;;4.30;99.90;;;;;;5025518;28;20199;-62
2023/04/15 04:54:09;;;;;;;5.13;2.83;;;4.30;99.90;;;;;;5026361;28;20231;-64
2023/04/15 04:56:35;;;;;;;4.33;3.03;;;4.10;99.90;;;;;;5027150;28;20193;-64
2023/04/15 04:59:00;;;;;;;5.73;3.33;;;3.90;99.90;;;;;;5027108;28;20532;-64
2023/04/15 05:01:26;;;;;;;3.77;3.20;;;3.60;99.90;;;;;;5025540;28;20459;-64
2023/04/15 05:03:52;;;;;;;3.27;2.73;;;4.00;99.90;;;;;;5027184;28;20242;-64
2023/04/15 05:06:17;;;;;;;4.90;3.13;;;4.10;99.90;;;;;;5025986;28;20192;-63
2023/04/15 05:08:43;;;;;;;6.23;3.70;;;4.00;99.90;;;;;;5027056;28;20445;-64
2023/04/15 05:11:09;;;;;;;5.88;4.38;;;3.40;99.90;;;;;;5025355;28;20201;-64
2023/04/15 05:13:37;;;;;;;6.40;3.40;;;4.20;99.90;;;;;;5026078;28;20212;-64
2023/04/15 05:16:04;;;;;;;7.50;3.30;;;4.20;99.90;;;;;;5027850;28;20190;-64
2023/04/15 05:18:29;;;;;;;4.00;3.30;;;4.20;99.90;;;;;;5029399;28;20218;-64
2023/04/15 05:20:55;;;;;;;5.80;3.27;;;4.40;99.90;;;;;;5025726;28;20185;-64
2023/04/15 05:23:21;;;;;;;3.33;3.10;;;3.70;99.90;;;;;;5026517;28;20475;-64
2023/04/15 05:25:46;;;;;;;4.30;3.10;;;3.80;99.90;;;;;;5025819;28;20177;-64
2023/04/15 05:28:12;;;;;;;7.80;3.30;;;4.30;99.90;;;;;;5027990;28;20191;-64
2023/04/15 05:30:38;;;;;;;3.80;3.20;;;4.20;99.90;;;;;;5027763;28;20201;-64
2023/04/15 05:33:04;;;;;;;4.00;3.60;;;4.60;99.90;;;;;;5029144;28;20210;-64
2023/04/15 05:35:30;;;;;;;4.57;3.00;;;4.40;99.90;;;;;;5026218;28;20732;-64
2023/04/15 05:37:55;;;;;;;4.50;2.90;;;4.50;99.90;;;;;;5025914;28;20275;-64
2023/04/15 05:40:21;;;;;;;3.70;2.90;;;4.50;99.90;;;;;;5025887;28;20459;-64
2023/04/15 05:42:47;;;;;;;6.03;3.30;;;4.50;99.90;;;;;;5024252;28;20479;-64
2023/04/15 05:45:13;;;;;;;3.50;3.20;;;4.40;99.90;;;;;;5024158;28;20505;-64
2023/04/15 05:47:38;;;;;;;6.63;3.50;;;4.20;99.90;;;;;;5024905;28;20195;-64
2023/04/15 05:50:05;;;;;;;5.27;4.13;;;4.90;99.90;;;;;;5024490;28;20197;-65
2023/04/15 05:52:31;;;;;;;4.93;4.18;;;5.10;99.90;;;;;;5024726;28;20226;-64
2023/04/15 05:54:57;;;;;;;3.43;3.10;;;5.30;99.90;;;;;;5024643;28;20859;-64
2023/04/15 05:57:22;;;;;;;4.37;3.63;;;5.40;99.90;;;;;;5025636;28;21028;-64
2023/04/15 05:59:51;;;;;;;6.20;3.90;;;5.10;99.90;;;;;;5023246;28;20213;-64
2023/04/15 06:02:16;;;;;;;4.30;3.60;;;5.80;99.90;;;;;;5023143;28;20275;-62
2023/04/15 06:04:42;;;;;;;3.83;3.37;;;5.90;99.90;;;;;;5027334;28;20225;-63
2023/04/15 06:07:08;;;;;;;6.33;4.37;;;5.50;99.90;;;;;;5024888;28;20190;-63
2023/04/15 06:09:35;;;;;;;5.30;3.77;;;6.60;99.90;;;;;;5023442;28;20468;-64
2023/04/15 06:12:01;;;;;;;7.40;4.40;;;6.60;99.90;;;;;;5022827;28;20457;-64
2023/04/15 06:14:26;;;;;;;4.85;4.05;;;7.00;99.90;;;;;;5023273;28;20186;-64
2023/04/15 06:16:52;;;;;;;6.07;3.83;;;7.30;99.90;;;;;;5026408;28;20190;-63
2023/04/15 06:19:18;;;;;;;5.83;4.00;;;7.80;99.90;;;;;;5024754;28;20205;-63
2023/04/15 06:21:44;;;;;;;5.17;3.70;;;7.70;99.90;;;;;;5024726;28;20183;-63
2023/04/15 06:24:10;;;;;;;6.57;4.32;;;7.60;99.90;;;;;;5022061;28;20443;-62
2023/04/15 06:26:36;;;;;;;4.18;3.78;;;7.60;99.90;;;;;;5024832;28;20182;-63
2023/04/15 06:29:02;;;;;;;5.93;4.70;;;7.60;99.90;;;;;;5030828;28;20661;-63
2023/04/15 06:31:27;;;;;;;14.57;9.50;;;8.10;99.90;;;;;;5030771;28;20206;-62
2023/04/15 06:33:53;;;;;;;6.50;4.20;;;8.10;99.90;;;;;;5029014;28;20205;-64
2023/04/15 06:36:19;;;;;;;3.80;3.30;;;8.80;99.90;;;;;;5030138;28;20190;-65
2023/04/15 06:38:45;;;;;;;5.37;4.00;;;9.10;99.90;;;;;;5026484;28;20653;-64
2023/04/15 06:41:11;;;;;;;8.50;4.50;;;9.40;99.90;;;;;;5031098;28;20530;-64
2023/04/15 06:43:36;;;;;;;6.67;3.80;;;9.20;99.90;;;;;;5023425;28;20457;-63
2023/04/15 06:46:02;;;;;;;4.90;4.15;;;9.60;99.20;;;;;;5025827;28;20441;-67
2023/04/15 06:48:27;;;;;;;7.00;4.47;;;10.40;97.70;;;;;;5028398;28;20197;-66
2023/04/15 06:50:53;;;;;;;8.43;4.03;;;10.80;95.50;;;;;;5033329;28;20216;-66
2023/04/15 06:53:19;;;;;;;4.82;4.32;;;10.50;95.40;;;;;;5030214;28;20628;-67
2023/04/15 06:55:45;;;;;;;5.83;4.20;;;11.20;95.70;;;;;;5030337;28;20190;-67
2023/04/15 06:58:10;;;;;;;5.37;4.83;;;11.40;93.90;;;;;;5026041;28;20272;-63
2023/04/15 07:00:38;;;;;;;5.10;4.60;;;11.50;93.00;;;;;;5030994;28;20198;-63
2023/04/15 07:03:04;;;;;;;6.40;5.68;;;12.30;92.20;;;;;;5026350;28;20715;-63
2023/04/15 07:05:31;;;;;;;6.15;5.35;;;13.60;90.20;;;;;;5029837;28;20202;-63
2023/04/15 07:07:57;;;;;;;9.15;5.10;;;14.90;85.10;;;;;;5030297;28;20186;-62
2023/04/15 07:10:22;;;;;;;7.00;4.73;;;16.80;78.50;;;;;;5029791;28;20182;-63
2023/04/15 07:12:49;;;;;;;6.60;5.63;;;18.60;72.30;;;;;;5030788;28;20229;-64
2023/04/15 07:15:15;;;;;;;6.47;5.70;;;20.10;66.80;;;;;;5028022;28;20480;-64
2023/04/15 07:17:42;;;;;;;5.37;4.43;;;21.30;60.30;;;;;;5031816;28;20440;-64
2023/04/15 07:20:08;;;;;;;6.73;5.73;;;21.10;59.20;;;;;;5030039;28;20284;-65
2023/04/15 07:22:33;;;;;;;5.77;5.17;;;22.90;55.90;;;;;;5027144;28;20519;-64
2023/04/15 07:24:59;;;;;;;6.13;5.53;;;23.60;54.20;;;;;;5030157;28;20448;-64
2023/04/15 07:27:26;;;;;;;6.67;5.17;;;24.70;50.10;;;;;;5029328;28;20185;-65
2023/04/15 07:29:52;;;;;;;5.93;5.33;;;24.60;46.80;;;;;;5027279;28;20468;-64
2023/04/15 07:32:17;;;;;;;5.33;4.60;;;24.30;49.80;;;;;;5025615;28;20495;-63
2023/04/15 07:34:43;;;;;;;6.40;5.80;;;24.60;46.90;;;;;;5026348;28;20450;-64
2023/04/15 07:37:09;;;;;;;7.63;4.90;;;24.60;47.30;;;;;;5025281;28;20455;-62
2023/04/15 07:39:35;;;;;;;6.50;5.20;;;24.50;46.00;;;;;;5025997;28;20224;-62
2023/04/15 07:42:02;;;;;;;6.03;4.83;;;23.60;46.50;;;;;;5028753;28;20360;-64
2023/04/15 07:44:29;;;;;;;8.03;4.97;;;22.20;47.90;;;;;;5025636;28;20544;-64
2023/04/15 07:46:55;;;;;;;6.13;4.67;;;21.50;48.70;;;;;;5026909;28;20441;-66
2023/04/15 07:49:21;;;;;;;6.35;5.13;;;20.30;50.80;;;;;;5027773;28;20436;-63
2023/04/15 07:51:47;;;;;;;6.57;5.87;;;19.40;52.10;;;;;;5029556;28;20236;-63
2023/04/15 07:54:13;;;;;;;9.70;6.45;;;18.60;54.40;;;;;;5020674;28;20191;-64
2023/04/15 07:56:39;;;;;;;8.63;5.70;;;17.80;55.50;;;;;;5028281;28;20201;-64
2023/04/15 07:59:05;;;;;;;7.00;5.50;;;16.90;58.00;;;;;;5026720;28;20182;-63
2023/04/15 08:01:31;;;;;;;5.50;4.80;;;16.50;58.60;;;;;;5020442;28;20452;-66
2023/04/15 08:03:58;;;;;;;5.60;4.50;;;16.30;59.80;;;;;;5026304;28;20203;-66
2023/04/15 08:06:23;;;;;;;6.32;4.50;;;15.80;60.60;;;;;;5027585;28;20197;-63
2023/04/15 08:08:49;;;;;;;5.10;3.87;;;15.70;62.50;;;;;;5028743;28;20186;-63
2023/04/15 08:11:15;;;;;;;4.80;4.40;;;15.90;61.80;;;;;;5026850;28;20217;-63
2023/04/15 08:13:41;;;;;;;5.68;5.07;;;16.60;61.30;;;;;;5025418;28;20506;-63
2023/04/15 08:16:26;;;;;;;7.27;4.97;;;16.90;60.80;;;;;;5024597;28;20190;-63
2023/04/15 08:18:52;;;;;;;7.45;5.47;;;17.30;59.50;;;;;;5026849;28;20455;-64
2023/04/15 08:21:19;;;;;;;5.60;5.00;;;17.70;58.90;;;;;;5027670;28;20226;-63
2023/04/15 08:23:46;;;;;;;7.30;4.63;;;18.50;58.20;;;;;;5024747;28;20246;-64
2023/04/15 08:26:12;;;;;;;4.82;4.00;;;18.90;57.70;;;;;;5028526;28;20187;-64
2023/04/15 08:28:39;;;;;;;4.30;3.90;;;19.90;55.40;;;;;;5027809;28;20510;-64
2023/04/15 08:31:05;;;;;;;6.80;4.50;;;20.30;53.40;;;;;;5027621;28;20610;-63
2023/04/15 08:33:31;;;;;;;7.73;4.90;;;20.10;53.40;;;;;;5027423;28;20896;-63
2023/04/15 08:35:56;;;;;;;5.63;4.70;;;20.80;53.10;;;;;;5025797;28;20548;-63
2023/04/15 08:38:25;;;;;;;5.67;5.13;;;20.00;54.50;;;;;;5027143;28;20674;-63
2023/04/15 08:40:51;;;;;;;5.07;4.60;;;20.60;52.60;;;;;;5027232;28;20278;-63
2023/04/15 08:43:27;;;;;;;5.80;4.00;;;21.30;51.70;;;;;;5025144;28;20564;-63
2023/04/15 08:45:54;;;;;;;5.37;4.50;;;20.90;51.80;;;;;;5025661;28;20933;-64
2023/04/15 08:48:20;;;;;;;4.10;3.67;;;22.20;51.50;;;;;;5021871;28;20476;-63
2023/04/15 08:50:47;;;;;;;5.17;4.20;;;21.30;50.70;;;;;;5020795;28;20449;-64
2023/04/15 08:53:14;;;;;;;4.73;4.17;;;21.30;50.80;;;;;;5025320;28;20472;-65
2023/04/15 08:55:45;;;;;;;6.67;4.00;;;20.70;51.50;;;;;;5020400;28;20511;-63
2023/04/15 08:58:12;;;;;;;4.53;4.13;;;22.50;49.90;;;;;;5021523;28;20478;-62
2023/04/15 09:00:38;;;;;;;5.73;4.23;;;24.20;48.00;;;;;;5026324;28;20960;-61
2023/04/15 09:03:05;;;;;;;7.10;5.50;;;23.70;47.60;;;;;;5025003;28;20827;-62
2023/04/15 09:05:35;;;;;;;8.47;3.50;;;24.90;46.60;;;;;;5026015;28;20445;-62
2023/04/15 09:08:02;;;;;;;6.10;4.30;;;24.40;45.80;;;;;;5028584;28;20647;-62
2023/04/15 09:10:28;;;;;;;4.90;3.47;;;24.30;46.20;;;;;;5027840;28;20471;-62
2023/04/15 09:12:55;;;;;;;4.17;3.80;;;24.70;45.20;;;;;;5027384;28;21059;-61
2023/04/15 09:15:22;;;;;;;5.70;3.50;;;25.50;44.50;;;;;;5028265;28;20521;-62
2023/04/15 09:17:48;;;;;;;4.43;3.50;;;25.00;43.70;;;;;;5025016;28;21003;-61
2023/04/15 09:20:17;;;;;;;4.13;3.00;;;24.20;43.50;;;;;;5027744;28;20524;-61
2023/04/15 09:22:45;;;;;;;4.13;3.00;;;24.20;44.70;;;;;;5026357;28;20240;-62
2023/04/15 09:25:28;;;;;;;4.00;3.43;;;24.60;43.70;;;;;;5027789;28;20438;-62
2023/04/15 09:27:57;;;;;;;3.97;3.57;;;23.80;45.10;;;;;;5022454;28;20982;-62
2023/04/15 09:30:23;;;;;;;4.13;3.60;;;22.80;46.40;;;;;;5028061;28;20521;-61
2023/04/15 09:32:50;;;;;;;4.50;4.03;;;23.30;46.70;;;;;;5027073;28;21046;-62
2023/04/15 09:35:17;;;;;;;4.47;3.67;;;23.40;46.70;;;;;;5024938;28;20179;-62
2023/04/15 09:37:42;;;;;;;8.43;3.50;;;23.60;46.30;;;;;;5026961;28;20524;-62
2023/04/15 09:40:08;;;;;;;4.67;4.17;;;22.90;46.80;;;;;;5025664;28;21001;-62
2023/04/15 09:42:35;;;;;;;4.10;2.87;;;22.70;47.30;;;;;;5023012;28;20688;-62
2023/04/15 09:45:10;;;;;;;3.73;3.03;;;21.80;47.60;;;;;;5026077;28;20494;-62
2023/04/15 09:47:36;;;;;;;5.00;2.63;;;22.10;47.70;;;;;;5026368;28;20432;-62
2023/04/15 09:50:02;;;;;;;3.23;2.97;;;21.50;47.10;;;;;;5024696;28;20488;-63
2023/04/15 09:52:28;;;;;;;3.57;3.00;;;21.20;47.70;;;;;;5020289;28;20460;-62
2023/04/15 09:54:55;;;;;;;4.43;3.20;;;20.80;47.30;;;;;;5026227;28;20432;-62
2023/04/15 09:57:22;;;;;;;3.03;2.33;;;20.40;48.50;;;;;;5019955;28;20211;-62
2023/04/15 09:59:48;;;;;;;5.20;3.00;;;19.80;49.30;;;;;;5025654;28;20217;-62
2023/04/15 10:02:17;;;;;;;5.27;2.83;;;19.30;50.10;;;;;;5026691;28;20307;-62
2023/04/15 10:04:44;;;;;;;4.30;3.65;;;19.00;50.80;;;;;;5022855;28;20472;-63
2023/04/15 10:07:11;;;;;;;4.18;2.65;;;18.80;50.80;;;;;;5025363;28;20183;-62
2023/04/15 10:09:41;;;;;;;4.88;3.40;;;18.60;51.30;;;;;;5027311;28;20667;-62
2023/04/15 10:12:07;;;;;;;8.35;2.70;;;18.60;51.60;;;;;;5026105;28;20622;-62
2023/04/15 10:14:37;;;;;;;4.75;3.13;;;18.50;51.40;;;;;;5026240;28;20263;-62
2023/04/15 10:17:04;;;;;;;4.57;2.90;;;18.60;51.70;;;;;;5026418;28;20205;-62
2023/04/15 10:19:33;;;;;;;4.30;2.88;;;18.90;51.80;;;;;;5026900;28;20201;-62
2023/04/15 10:21:59;;;;;;;5.78;2.60;;;18.80;51.40;;;;;;5025408;28;20289;-63
2023/04/15 10:24:25;;;;;;;4.37;2.80;;;18.70;51.00;;;;;;5023504;28;20368;-63
2023/04/15 10:26:51;;;;;;;3.47;2.57;;;18.60;50.80;;;;;;5025206;28;20990;-63
2023/04/15 10:29:17;;;;;;;3.58;2.72;;;18.50;51.30;;;;;;5023338;28;20468;-62
2023/04/15 10:31:43;;;;;;;3.23;2.93;;;18.30;51.70;;;;;;5029274;28;20764;-63
2023/04/15 10:34:10;;;;;;;3.80;2.40;;;18.30;52.80;;;;;;5021303;28;20213;-63
2023/04/15 10:36:36;;;;;;;4.13;3.20;;;18.50;50.80;;;;;;5024031;28;20617;-62
2023/04/15 10:39:05;;;;;;;3.30;3.00;;;18.70;49.40;;;;;;5027473;28;20206;-63
2023/04/15 10:41:33;;;;;;;4.32;3.92;;;18.80;51.30;;;;;;5024226;28;20688;-63
2023/04/15 10:43:59;;;;;;;3.13;2.92;;;18.90;52.50;;;;;;5020906;28;20331;-63
2023/04/15 10:46:41;;;;;;;6.05;3.10;;;18.80;51.50;;;;;;5023691;28;20707;-62
2023/04/15 10:49:14;;;;;;;4.93;3.60;;;18.90;51.00;;;;;;5023498;28;20194;-63
2023/04/15 10:51:41;;;;;;;4.28;3.28;;;18.90;50.10;;;;;;5026179;28;20284;-63
2023/04/15 10:54:32;;;;;;;13.50;3.70;;;18.80;51.00;;;;;;5024263;28;20202;-62
2023/04/15 10:57:04;;;;;;;5.15;3.85;;;19.00;52.10;;;;;;5018474;28;20259;-62
2023/04/15 10:59:31;;;;;;;4.40;3.33;;;19.10;53.30;;;;;;5025811;28;20190;-65
2023/04/15 11:02:01;;;;;;;4.70;3.03;;;18.40;53.30;;;;;;5025185;28;20202;-63
2023/04/15 11:04:52;;;;;;;5.05;3.00;;;18.20;53.10;;;;;;5026882;28;20248;-65
2023/04/15 11:07:54;;;;;;;5.43;3.15;;;18.10;52.40;;;;;;5020903;28;20707;-65
2023/04/15 11:10:29;;;;;;;3.50;3.20;;;17.90;53.10;;;;;;5021928;28;20213;-64
2023/04/15 11:13:03;;;;;;;4.38;3.38;;;17.60;53.60;;;;;;5018376;28;20252;-64
2023/04/15 11:15:30;;;;;;;4.22;3.47;;;17.40;53.90;;;;;;5023374;28;20228;-64
2023/04/15 11:17:57;;;;;;;2.90;2.70;;;17.00;54.80;;;;;;5027993;28;20269;-64
2023/04/15 11:20:23;;;;;;;4.18;3.45;;;16.90;54.50;;;;;;5020383;28;20210;-64
2023/04/15 11:22:55;;;;;;;3.55;3.28;;;16.70;54.90;;;;;;5027299;28;20236;-64
2023/04/15 11:25:24;;;;;;;6.30;4.00;;;16.70;55.50;;;;;;5024812;28;20182;-64
2023/04/15 11:27:51;;;;;;;3.45;3.15;;;17.20;55.30;;;;;;5027042;28;20190;-64
2023/04/15 11:30:25;;;;;;;4.25;3.85;;;18.50;54.50;;;;;;5030521;28;20182;-65
2023/04/15 11:32:56;;;;;;;4.22;3.00;;;19.00;53.30;;;;;;5029084;28;20190;-65
2023/04/15 11:35:22;;;;;;;4.00;3.60;;;19.90;50.40;;;;;;5027022;28;20188;-65
2023/04/15 11:37:49;;;;;;;3.47;2.90;;;19.80;49.60;;;;;;5025091;28;20189;-65
2023/04/15 11:40:16;;;;;;;3.03;2.80;;;19.90;49.20;;;;;;5029443;28;20182;-63
2023/04/15 11:42:43;;;;;;;3.55;3.22;;;20.20;48.80;;;;;;5027946;28;20206;-65
2023/04/15 11:45:11;;;;;;;4.70;3.47;;;19.80;49.20;;;;;;5028223;28;20294;-64
2023/04/15 11:47:38;;;;;;;5.38;3.60;;;19.50;50.20;;;;;;5024859;28;20189;-63
2023/04/15 11:50:20;;;;;;;3.70;3.35;;;19.40;50.70;;;;;;5023854;28;20213;-63
2023/04/15 11:52:57;;;;;;;5.05;3.80;;;18.80;51.70;;;;;;5027927;28;20198;-65
2023/04/15 11:55:23;;;;;;;5.13;3.90;;;17.60;53.90;;;;;;5025102;28;20228;-65
2023/04/15 11:58:04;;;;;;;4.50;4.10;;;17.50;57.00;;;;;;5022698;28;20187;-64
2023/04/15 12:00:30;;;;;;;6.82;4.60;;;17.20;59.00;;;;;;5028849;28;20217;-65
2023/04/15 12:03:18;;;;;;;4.70;3.43;;;16.90;59.60;;;;;;5027573;28;20249;-65
2023/04/15 12:06:07;;;;;;;5.25;3.70;;;16.50;59.70;;;;;;5023587;28;20194;-63
2023/04/15 12:08:55;;;;;;;4.28;3.95;;;16.50;58.90;;;;;;5024416;28;20316;-64
2023/04/15 12:11:29;;;;;;;3.90;3.55;;;17.00;58.90;;;;;;5025978;28;20594;-63
2023/04/15 12:13:56;;;;;;;5.18;4.07;;;17.00;57.50;;;;;;5025262;28;20202;-63
2023/04/15 12:16:22;;;;;;;3.78;3.47;;;17.00;57.80;;;;;;5022935;28;20219;-64
2023/04/15 12:18:57;;;;;;;4.53;3.88;;;16.80;56.90;;;;;;5027390;28;20194;-63
2023/04/15 12:21:24;;;;;;;4.00;3.60;;;16.90;57.10;;;;;;5024533;28;20535;-63
2023/04/15 12:23:57;;;;;;;5.50;3.80;;;16.90;56.30;;;;;;5028604;28;20214;-65
2023/04/15 12:26:50;;;;;;;4.05;3.75;;;17.00;56.20;;;;;;5022011;28;20281;-63
2023/04/15 12:29:16;;;;;;;4.95;3.88;;;17.20;55.80;;;;;;5024406;28;20650;-63
2023/04/15 12:31:56;;;;;;;3.53;3.22;;;17.50;55.70;;;;;;5031231;28;20335;-65
2023/04/15 12:34:34;;;;;;;4.00;3.25;;;17.30;56.20;;;;;;5028369;28;20321;-63
2023/04/15 12:37:02;;;;;;;3.45;3.15;;;16.60;59.30;;;;;;5025948;28;20280;-64
2023/04/15 12:39:31;;;;;;;5.55;3.40;;;16.20;63.90;;;;;;5026667;28;20190;-63
2023/04/15 12:41:58;;;;;;;3.67;3.38;;;15.70;66.10;;;;;;5025199;28;20213;-63
2023/04/15 12:44:24;;;;;;;3.90;3.47;;;15.70;68.70;;;;;;5028305;28;20651;-63
2023/04/15 12:46:52;;;;;;;7.10;4.03;;;15.60;70.00;;;;;;5026217;28;20195;-63
2023/04/15 12:49:19;;;;;;;14.38;4.05;;;15.30;72.70;;;;;;5025991;28;20437;-64
2023/04/15 12:51:47;;;;;;;6.95;6.22;;;14.80;76.40;;;;;;5023829;28;20853;-64
2023/04/15 12:54:13;;;;;;;3.72;3.42;;;14.40;83.20;;;;;;5025935;28;20516;-63